createdAt,value
2019-05-12T12:20:57.154Z,100636.42
2019-05-12T12:23:27.788Z,100645.25
2019-05-12T12:26:00.359Z,100654.80
2019-05-12T12:28:35.778Z,100667.39
2019-05-12T12:31:08.388Z,100698.33
2019-05-12T12:33:46.718Z,100710.23
2019-05-12T12:36:14.886Z,100727.83
2019-05-12T12:38:47.520Z,100742.14
2019-05-12T12:41:29.172Z,100741.63
2019-05-12T12:44:09.193Z,100739.72
2019-05-12T12:46:51.285Z,100736.61
2019-05-12T12:49:25.291Z,100745.00
2019-05-12T12:52:03.332Z,100746.24
2019-05-12T12:54:59.349Z,100743.49
2019-05-12T12:57:40.270Z,100752.27
2019-05-12T13:00:13.733Z,100756.59
2019-05-12T13:02:49.277Z,100769.70
2019-05-12T13:05:23.852Z,100767.38
2019-05-12T13:07:57.234Z,100771.92
2019-05-12T13:10:30.649Z,100770.13
2019-05-12T13:13:04.079Z,100778.27
2019-05-12T13:15:44.477Z,100778.27
2019-05-12T13:18:24.057Z,100787.38
2019-05-12T13:21:03.392Z,100784.03
2019-05-12T13:23:45.278Z,100782.47
2019-05-12T13:26:17.137Z,100785.22
2019-05-12T13:28:54.862Z,100789.06
2019-05-12T13:31:29.977Z,100794.75
2019-05-12T13:34:03.629Z,100798.09
2019-05-12T13:36:39.319Z,100803.28
2019-05-12T13:39:16.209Z,100800.42
2019-05-12T13:41:58.525Z,100807.29
2019-05-12T13:44:30.266Z,100806.15
2019-05-12T13:46:59.697Z,100812.90
2019-05-12T13:49:38.438Z,100814.27
2019-05-12T13:52:06.751Z,100827.97
2019-05-12T13:54:46.315Z,100843.94
2019-05-12T13:57:19.226Z,100863.75
2019-05-12T13:59:53.709Z,100878.50
2019-05-12T14:02:26.107Z,100885.23
2019-05-12T14:05:00.407Z,100891.30
2019-05-12T14:07:34.609Z,100903.53
2019-05-12T14:10:15.257Z,100914.08
2019-05-12T14:12:47.451Z,100929.42
2019-05-12T14:15:20.152Z,100931.41
2019-05-12T14:17:59.193Z,100928.37
2019-05-12T14:20:34.461Z,100926.20
2019-05-12T14:23:19.111Z,100924.54
2019-05-12T14:25:54.075Z,100914.66
2019-05-12T14:28:44.748Z,100909.44
2019-05-12T14:31:26.897Z,100917.45
2019-05-12T14:33:48.499Z,100922.59
2019-05-12T14:36:27.544Z,100907.42
2019-05-12T14:39:05.114Z,100911.55
2019-05-12T14:41:44.482Z,100902.34
2019-05-12T14:44:18.145Z,100892.12
2019-05-12T14:46:50.868Z,100890.64
2019-05-12T14:49:26.431Z,100890.70
2019-05-12T14:51:58.897Z,100889.06
2019-05-12T14:54:34.611Z,100894.25
2019-05-12T14:57:19.508Z,100899.66
2019-05-12T14:59:51.609Z,100913.47
2019-05-12T15:02:33.252Z,100910.55
2019-05-12T15:05:10.882Z,100907.39
2019-05-12T15:07:50.919Z,100902.06
2019-05-12T15:10:17.939Z,100889.74
2019-05-12T15:12:59.091Z,100877.86
2019-05-12T15:15:33.437Z,100862.34
2019-05-12T15:18:10.084Z,100846.01
2019-05-12T15:20:41.442Z,100837.53
2019-05-12T15:23:14.526Z,100836.00
2019-05-12T15:25:47.348Z,100827.76
2019-05-12T15:28:20.126Z,100821.84
2019-05-12T15:31:03.601Z,100827.76
2019-05-12T15:33:34.319Z,100833.84
2019-05-12T15:36:10.872Z,100828.86
2019-05-12T15:38:49.016Z,100839.56
2019-05-12T15:41:25.118Z,100841.22
2019-05-12T15:43:58.159Z,100839.56
2019-05-12T15:46:33.008Z,100846.12
2019-05-12T15:49:08.794Z,100841.38
2019-05-12T15:51:51.007Z,100840.79
2019-05-12T15:54:14.935Z,100838.32
2019-05-12T15:56:59.964Z,100836.75
2019-05-12T15:59:34.623Z,100837.33
2019-05-12T16:02:16.854Z,100831.72
2019-05-12T16:04:51.191Z,100827.70
2019-05-12T16:07:24.316Z,100823.94
2019-05-12T16:09:57.175Z,100816.84
2019-05-12T16:12:29.982Z,100820.77
2019-05-12T16:15:04.524Z,100812.92
2019-05-12T16:17:49.117Z,100805.28
2019-05-12T16:20:22.161Z,100805.34
2019-05-12T16:23:01.144Z,100811.39
2019-05-12T16:25:34.241Z,100807.11
2019-05-12T16:28:07.561Z,100810.33
2019-05-12T16:30:47.360Z,100812.08
2019-05-12T16:33:28.263Z,100811.50
2019-05-12T16:36:09.386Z,100817.53
2019-05-12T16:38:44.344Z,100817.92
2019-05-12T16:41:26.243Z,100822.52
2019-05-12T16:43:58.343Z,100822.79
2019-05-12T16:46:37.274Z,100824.58
2019-05-12T16:49:14.040Z,100822.27
2019-05-12T16:51:59.898Z,100823.37
2019-05-12T16:54:39.289Z,100822.55
2019-05-12T16:57:25.656Z,100826.29
2019-05-12T17:00:03.478Z,100822.00
2019-05-12T17:02:41.496Z,100823.33
2019-05-12T17:05:29.954Z,100822.33
2019-05-12T17:08:13.855Z,100825.66
2019-05-12T17:11:01.147Z,100825.80
2019-05-12T17:13:30.846Z,100823.51
2019-05-12T17:16:04.397Z,100819.94
2019-05-12T17:18:36.681Z,100814.11
2019-05-12T17:21:11.318Z,100816.00
2019-05-12T17:23:44.320Z,100816.65
2019-05-12T17:26:24.253Z,100809.55
2019-05-12T17:29:01.696Z,100807.91
2019-05-12T17:31:34.716Z,100814.17
2019-05-12T17:34:10.427Z,100803.41
2019-05-12T17:36:44.816Z,100802.41
2019-05-12T17:39:17.811Z,100800.15
2019-05-12T17:41:59.363Z,100796.03
2019-05-12T17:44:36.639Z,100788.66
2019-05-12T17:47:06.848Z,100781.34
2019-05-12T17:49:43.593Z,100774.24
2019-05-12T17:52:18.658Z,100773.42
2019-05-12T17:54:57.821Z,100772.70
2019-05-12T17:57:25.421Z,100772.56
2019-05-12T17:59:59.860Z,100773.11
2019-05-12T18:02:34.279Z,100763.27
2019-05-12T18:05:12.304Z,100759.77
2019-05-12T18:07:44.314Z,100759.30
2019-05-12T18:10:17.621Z,100751.91
2019-05-12T18:12:53.738Z,100752.71
2019-05-12T18:15:33.238Z,100744.68
2019-05-12T18:18:07.041Z,100736.20
2019-05-12T18:20:41.678Z,100732.09
2019-05-12T18:23:13.548Z,100721.73
2019-05-12T18:25:46.456Z,100714.45
2019-05-12T18:28:21.616Z,100713.08
2019-05-12T18:30:53.889Z,100709.28
2019-05-12T18:33:37.416Z,100722.96
2019-05-12T18:36:08.136Z,100715.87
2019-05-12T18:38:40.644Z,100710.84
2019-05-12T18:41:13.963Z,100697.13
2019-05-12T18:43:47.108Z,100688.81
2019-05-12T18:46:19.743Z,100675.64
2019-05-12T18:48:54.266Z,100667.87
2019-05-12T18:51:26.803Z,100665.64
2019-05-12T18:54:10.495Z,100663.84
2019-05-12T18:56:43.924Z,100668.66
2019-05-12T18:59:16.998Z,100669.95
2019-05-12T19:01:50.554Z,100669.02
2019-05-12T19:04:33.948Z,100664.34
2019-05-12T19:07:07.459Z,100661.30
2019-05-12T19:09:43.871Z,100664.34
2019-05-12T19:12:20.776Z,100662.16
2019-05-12T19:14:52.534Z,100665.52
2019-05-12T19:17:24.753Z,100665.17
2019-05-12T19:19:59.896Z,100657.13
2019-05-12T19:22:33.718Z,100660.50
2019-05-12T19:25:14.655Z,100654.47
2019-05-12T19:27:55.010Z,100658.30
2019-05-12T19:30:29.982Z,100652.08
2019-05-12T19:33:08.500Z,100654.00
2019-05-12T19:35:38.037Z,100645.41
2019-05-12T19:38:15.188Z,100641.03
2019-05-12T19:40:47.346Z,100634.95
2019-05-12T19:43:19.322Z,100629.82
2019-05-12T19:45:53.548Z,100634.48
2019-05-12T19:48:27.696Z,100628.88
2019-05-12T19:51:15.936Z,100626.02
2019-05-12T19:53:35.596Z,100629.52
2019-05-12T19:56:08.520Z,100623.31
2019-05-12T19:58:43.840Z,100617.13
2019-05-12T20:01:15.486Z,100611.88
2019-05-12T20:03:49.942Z,100612.45
2019-05-12T20:06:24.177Z,100604.08
2019-05-12T20:09:06.157Z,100603.05
2019-05-12T20:11:34.324Z,100592.13
2019-05-12T20:14:09.964Z,100587.73
2019-05-12T20:16:49.847Z,100587.66
2019-05-12T20:19:27.670Z,100584.82
2019-05-12T20:21:59.419Z,100578.23
2019-05-12T20:24:33.199Z,100579.05
2019-05-12T20:27:10.674Z,100584.46
2019-05-12T20:29:39.765Z,100584.03
2019-05-12T20:32:24.200Z,100587.80
2019-05-12T20:34:57.449Z,100586.63
2019-05-12T20:37:30.292Z,100585.25
2019-05-12T20:40:05.718Z,100584.44
2019-05-12T20:42:44.081Z,100588.67
2019-05-12T20:45:13.900Z,100589.44
2019-05-12T20:47:48.170Z,100587.79
2019-05-12T20:50:24.277Z,100599.02
2019-05-12T20:52:58.980Z,100593.75
2019-05-12T20:55:35.566Z,100600.04
2019-05-12T20:58:05.701Z,100598.43
2019-05-12T21:00:38.905Z,100596.55
2019-05-12T21:03:13.835Z,100596.33
2019-05-12T21:05:50.761Z,100598.67
2019-05-12T21:08:20.780Z,100598.47
2019-05-12T21:10:58.427Z,100596.06
2019-05-12T21:13:34.051Z,100605.02
2019-05-12T21:16:16.435Z,100608.27
2019-05-12T21:18:47.821Z,100610.98
2019-05-12T21:21:14.707Z,100610.84
2019-05-12T21:23:54.008Z,100603.12
2019-05-12T21:26:22.807Z,100613.13
2019-05-12T21:28:56.023Z,100613.47
2019-05-12T21:31:30.857Z,100614.19
2019-05-12T21:34:06.627Z,100610.02
2019-05-12T21:36:40.231Z,100615.97
2019-05-12T21:39:13.966Z,100615.38
2019-05-12T21:41:51.957Z,100613.98
2019-05-12T21:44:21.610Z,100613.37
2019-05-12T21:47:02.600Z,100605.00
2019-05-12T21:49:28.769Z,100611.64
2019-05-12T21:52:04.151Z,100610.72
2019-05-12T21:54:39.644Z,100615.00
2019-05-12T21:57:11.684Z,100621.36
2019-05-12T21:59:45.350Z,100620.14
2019-05-12T22:02:19.786Z,100620.10
2019-05-12T22:04:59.364Z,100620.42
2019-05-12T22:07:39.551Z,100628.69
2019-05-12T22:10:15.334Z,100636.02
2019-05-12T22:12:49.776Z,100635.11
2019-05-12T22:15:37.066Z,100631.34
2019-05-12T22:18:14.093Z,100643.69
2019-05-12T22:20:52.266Z,100634.64
2019-05-12T22:23:35.188Z,100644.16
2019-05-12T22:26:11.873Z,100644.48
2019-05-12T22:28:55.279Z,100645.92
